sensor_id;sensor_type;location;lat;lon;timestamp;pressure;altitude;pressure_sealevel;temperature;humidity
70217;BME280;65567;55.684;37.570;2023-04-09T00:01:50;100165.75;;;12.31;37.23
70217;BME280;65567;55.684;37.570;2023-04-09T00:04:16;100154.78;;;12.21;37.47
70217;BME280;65567;55.684;37.570;2023-04-09T00:06:42;100167.59;;;12.29;37.14
70217;BME280;65567;55.684;37.570;2023-04-09T00:09:07;100160.69;;;12.06;37.74
70217;BME280;65567;55.684;37.570;2023-04-09T00:11:33;100163.44;;;12.23;37.40
70217;BME280;65567;55.684;37.570;2023-04-09T00:13:59;100164.75;;;12.34;36.95
70217;BME280;65567;55.684;37.570;2023-04-09T00:16:25;100162.66;;;12.42;36.93
70217;BME280;65567;55.684;37.570;2023-04-09T00:18:51;100165.88;;;12.28;37.09
70217;BME280;65567;55.684;37.570;2023-04-09T00:21:17;100171.22;;;12.27;37.17
70217;BME280;65567;55.684;37.570;2023-04-09T00:23:42;100163.69;;;12.38;36.83
70217;BME280;65567;55.684;37.570;2023-04-09T00:26:08;100165.16;;;12.25;37.32
70217;BME280;65567;55.684;37.570;2023-04-09T00:28:34;100167.06;;;12.42;36.96
70217;BME280;65567;55.684;37.570;2023-04-09T00:31:01;100168.03;;;12.39;36.99
70217;BME280;65567;55.684;37.570;2023-04-09T00:33:27;100170.22;;;12.50;36.70
70217;BME280;65567;55.684;37.570;2023-04-09T00:35:53;100161.53;;;12.48;36.96
70217;BME280;65567;55.684;37.570;2023-04-09T00:38:18;100168.59;;;12.47;36.79
70217;BME280;65567;55.684;37.570;2023-04-09T00:40:48;100165.03;;;12.28;37.38
70217;BME280;65567;55.684;37.570;2023-04-09T00:43:15;100170.09;;;12.32;37.13
70217;BME280;65567;55.684;37.570;2023-04-09T00:45:41;100154.91;;;12.39;36.89
70217;BME280;65567;55.684;37.570;2023-04-09T00:48:07;100162.94;;;12.36;37.29
70217;BME280;65567;55.684;37.570;2023-04-09T00:50:33;100164.38;;;12.22;37.37
70217;BME280;65567;55.684;37.570;2023-04-09T00:52:59;100172.56;;;12.35;37.27
70217;BME280;65567;55.684;37.570;2023-04-09T00:55:25;100160.41;;;12.33;37.42
70217;BME280;65567;55.684;37.570;2023-04-09T00:57:51;100164.25;;;12.26;37.63
70217;BME280;65567;55.684;37.570;2023-04-09T01:00:17;100158.06;;;12.27;37.24
70217;BME280;65567;55.684;37.570;2023-04-09T01:02:44;100159.13;;;12.22;37.40
70217;BME280;65567;55.684;37.570;2023-04-09T01:05:11;100168.84;;;12.20;37.87
70217;BME280;65567;55.684;37.570;2023-04-09T01:08:03;100156.44;;;12.24;37.39
70217;BME280;65567;55.684;37.570;2023-04-09T01:10:42;100158.19;;;12.23;37.45
70217;BME280;65567;55.684;37.570;2023-04-09T01:13:17;100158.06;;;12.27;37.72
70217;BME280;65567;55.684;37.570;2023-04-09T01:15:47;100160.63;;;12.07;37.84
70217;BME280;65567;55.684;37.570;2023-04-09T01:18:18;100157.50;;;12.20;37.74
70217;BME280;65567;55.684;37.570;2023-04-09T01:20:59;100169.91;;;12.37;37.16
70217;BME280;65567;55.684;37.570;2023-04-09T01:23:46;100156.78;;;12.56;37.33
70217;BME280;65567;55.684;37.570;2023-04-09T01:28:56;100171.13;;;12.28;37.86
70217;BME280;65567;55.684;37.570;2023-04-09T01:31:34;100164.50;;;12.19;37.97
70217;BME280;65567;55.684;37.570;2023-04-09T01:34:01;100167.13;;;12.19;38.07
70217;BME280;65567;55.684;37.570;2023-04-09T01:36:29;100160.78;;;12.03;38.32
70217;BME280;65567;55.684;37.570;2023-04-09T01:38:56;100166.78;;;12.06;38.04
70217;BME280;65567;55.684;37.570;2023-04-09T01:41:25;100167.06;;;12.00;38.48
70217;BME280;65567;55.684;37.570;2023-04-09T01:43:52;100168.19;;;12.15;38.28
70217;BME280;65567;55.684;37.570;2023-04-09T01:46:21;100167.25;;;12.16;37.94
70217;BME280;65567;55.684;37.570;2023-04-09T01:48:48;100166.34;;;11.97;38.54
70217;BME280;65567;55.684;37.570;2023-04-09T01:51:15;100167.91;;;12.01;38.26
70217;BME280;65567;55.684;37.570;2023-04-09T01:53:42;100173.69;;;11.87;38.54
70217;BME280;65567;55.684;37.570;2023-04-09T01:56:08;100171.00;;;11.88;38.48
70217;BME280;65567;55.684;37.570;2023-04-09T01:58:34;100171.94;;;11.87;38.72
70217;BME280;65567;55.684;37.570;2023-04-09T02:03:47;100167.66;;;12.07;38.37
70217;BME280;65567;55.684;37.570;2023-04-09T02:09:07;100172.19;;;12.03;38.59
70217;BME280;65567;55.684;37.570;2023-04-09T02:11:37;100168.13;;;11.95;38.64
70217;BME280;65567;55.684;37.570;2023-04-09T02:14:06;100167.09;;;11.99;38.63
70217;BME280;65567;55.684;37.570;2023-04-09T02:16:33;100174.34;;;11.92;38.75
70217;BME280;65567;55.684;37.570;2023-04-09T02:18:59;100171.66;;;11.73;39.31
70217;BME280;65567;55.684;37.570;2023-04-09T02:21:26;100161.75;;;12.02;38.53
70217;BME280;65567;55.684;37.570;2023-04-09T02:23:56;100171.78;;;11.90;38.79
70217;BME280;65567;55.684;37.570;2023-04-09T02:26:22;100163.38;;;11.82;39.17
70217;BME280;65567;55.684;37.570;2023-04-09T02:28:48;100166.84;;;12.05;38.77
70217;BME280;65567;55.684;37.570;2023-04-09T02:31:15;100171.38;;;12.01;38.59
70217;BME280;65567;55.684;37.570;2023-04-09T02:33:40;100164.31;;;11.81;39.08
70217;BME280;65567;55.684;37.570;2023-04-09T02:36:10;100166.63;;;11.89;39.15
70217;BME280;65567;55.684;37.570;2023-04-09T02:38:39;100157.78;;;11.69;39.47
70217;BME280;65567;55.684;37.570;2023-04-09T02:41:06;100166.81;;;11.62;39.82
70217;BME280;65567;55.684;37.570;2023-04-09T02:43:32;100166.69;;;11.65;39.88
70217;BME280;65567;55.684;37.570;2023-04-09T02:45:58;100161.91;;;11.75;39.34
70217;BME280;65567;55.684;37.570;2023-04-09T02:48:23;100162.66;;;11.79;39.46
70217;BME280;65567;55.684;37.570;2023-04-09T02:50:49;100167.38;;;11.91;38.95
70217;BME280;65567;55.684;37.570;2023-04-09T02:53:15;100164.47;;;11.99;39.13
70217;BME280;65567;55.684;37.570;2023-04-09T02:55:41;100165.22;;;11.80;39.52
70217;BME280;65567;55.684;37.570;2023-04-09T02:58:07;100167.16;;;11.75;39.63
70217;BME280;65567;55.684;37.570;2023-04-09T03:00:32;100164.31;;;11.81;39.36
70217;BME280;65567;55.684;37.570;2023-04-09T03:02:58;100170.84;;;11.71;39.43
70217;BME280;65567;55.684;37.570;2023-04-09T03:05:24;100171.78;;;11.90;39.32
70217;BME280;65567;55.684;37.570;2023-04-09T03:07:50;100164.38;;;11.80;39.42
70217;BME280;65567;55.684;37.570;2023-04-09T03:10:16;100172.84;;;11.86;39.35
70217;BME280;65567;55.684;37.570;2023-04-09T03:12:42;100175.72;;;11.80;39.74
70217;BME280;65567;55.684;37.570;2023-04-09T03:15:10;100183.28;;;11.88;39.19
70217;BME280;65567;55.684;37.570;2023-04-09T03:17:36;100175.72;;;11.80;39.30
70217;BME280;65567;55.684;37.570;2023-04-09T03:20:01;100178.50;;;11.76;39.61
70217;BME280;65567;55.684;37.570;2023-04-09T03:22:27;100172.66;;;11.69;39.79
70217;BME280;65567;55.684;37.570;2023-04-09T03:24:55;100166.41;;;11.73;39.80
70217;BME280;65567;55.684;37.570;2023-04-09T03:27:20;100171.00;;;11.88;39.59
70217;BME280;65567;55.684;37.570;2023-04-09T03:29:46;100176.63;;;12.01;39.11
70217;BME280;65567;55.684;37.570;2023-04-09T03:32:12;100178.75;;;11.92;39.42
70217;BME280;65567;55.684;37.570;2023-04-09T03:34:38;100175.97;;;11.96;39.55
70217;BME280;65567;55.684;37.570;2023-04-09T03:37:03;100168.75;;;12.01;39.37
70217;BME280;65567;55.684;37.570;2023-04-09T03:39:29;100172.09;;;11.83;39.74
70217;BME280;65567;55.684;37.570;2023-04-09T03:41:56;100169.31;;;11.87;39.62
70217;BME280;65567;55.684;37.570;2023-04-09T03:44:23;100170.47;;;12.02;39.45
70217;BME280;65567;55.684;37.570;2023-04-09T03:46:49;100173.38;;;11.95;39.65
70217;BME280;65567;55.684;37.570;2023-04-09T03:49:15;100172.91;;;12.07;39.32
70217;BME280;65567;55.684;37.570;2023-04-09T03:51:41;100172.09;;;12.05;39.21
70217;BME280;65567;55.684;37.570;2023-04-09T03:54:08;100175.81;;;12.21;38.90
70217;BME280;65567;55.684;37.570;2023-04-09T03:56:34;100177.63;;;12.19;39.17
70217;BME280;65567;55.684;37.570;2023-04-09T03:59:00;100170.66;;;12.18;39.31
70217;BME280;65567;55.684;37.570;2023-04-09T04:01:26;100170.31;;;12.05;39.35
70217;BME280;65567;55.684;37.570;2023-04-09T04:03:52;100171.78;;;12.13;39.16
70217;BME280;65567;55.684;37.570;2023-04-09T04:06:18;100180.00;;;12.26;39.11
70217;BME280;65567;55.684;37.570;2023-04-09T04:08:43;100174.16;;;12.39;38.75
70217;BME280;65567;55.684;37.570;2023-04-09T04:11:09;100169.50;;;12.46;38.55
70217;BME280;65567;55.684;37.570;2023-04-09T04:13:35;100170.16;;;12.51;38.43
70217;BME280;65567;55.684;37.570;2023-04-09T04:16:01;100166.72;;;12.49;38.63
70217;BME280;65567;55.684;37.570;2023-04-09T04:18:27;100165.53;;;12.56;38.53
70217;BME280;65567;55.684;37.570;2023-04-09T04:20:52;100170.50;;;12.63;38.53
70217;BME280;65567;55.684;37.570;2023-04-09T04:23:18;100171.16;;;12.68;38.66
70217;BME280;65567;55.684;37.570;2023-04-09T04:25:44;100164.25;;;12.65;38.86
70217;BME280;65567;55.684;37.570;2023-04-09T04:28:10;100173.84;;;12.87;38.41
70217;BME280;65567;55.684;37.570;2023-04-09T04:30:35;100164.75;;;13.13;37.69
70217;BME280;65567;55.684;37.570;2023-04-09T04:33:01;100168.97;;;13.17;37.62
70217;BME280;65567;55.684;37.570;2023-04-09T04:35:27;100163.25;;;13.27;37.78
70217;BME280;65567;55.684;37.570;2023-04-09T04:37:53;100166.75;;;13.46;37.34
70217;BME280;65567;55.684;37.570;2023-04-09T04:40:19;100157.63;;;13.53;36.97
70217;BME280;65567;55.684;37.570;2023-04-09T04:42:44;100155.84;;;13.35;37.22
70217;BME280;65567;55.684;37.570;2023-04-09T04:45:10;100159.22;;;13.38;37.44
70217;BME280;65567;55.684;37.570;2023-04-09T04:47:36;100171.59;;;13.55;37.02
70217;BME280;65567;55.684;37.570;2023-04-09T04:50:02;100163.50;;;13.41;37.34
70217;BME280;65567;55.684;37.570;2023-04-09T04:52:28;100158.88;;;13.64;37.48
70217;BME280;65567;55.684;37.570;2023-04-09T04:54:54;100158.22;;;13.95;36.49
70217;BME280;65567;55.684;37.570;2023-04-09T04:57:20;100156.78;;;14.07;36.19
70217;BME280;65567;55.684;37.570;2023-04-09T04:59:46;100154.44;;;14.36;36.13
70217;BME280;65567;55.684;37.570;2023-04-09T05:02:11;100158.84;;;14.53;35.59
70217;BME280;65567;55.684;37.570;2023-04-09T05:04:38;100159.81;;;14.68;35.10
70217;BME280;65567;55.684;37.570;2023-04-09T05:07:04;100159.28;;;14.79;35.29
70217;BME280;65567;55.684;37.570;2023-04-09T05:09:30;100152.31;;;14.94;34.94
70217;BME280;65567;55.684;37.570;2023-04-09T05:11:55;100162.81;;;15.11;34.71
70217;BME280;65567;55.684;37.570;2023-04-09T05:14:21;100153.59;;;15.18;34.30
70217;BME280;65567;55.684;37.570;2023-04-09T05:16:48;100161.19;;;15.25;34.35
70217;BME280;65567;55.684;37.570;2023-04-09T05:19:14;100152.56;;;15.37;34.02
70217;BME280;65567;55.684;37.570;2023-04-09T05:21:40;100159.81;;;15.49;33.90
70217;BME280;65567;55.684;37.570;2023-04-09T05:24:06;100164.25;;;15.65;33.80
70217;BME280;65567;55.684;37.570;2023-04-09T05:26:32;100165.13;;;15.80;33.78
70217;BME280;65567;55.684;37.570;2023-04-09T05:28:58;100159.81;;;16.12;33.35
70217;BME280;65567;55.684;37.570;2023-04-09T05:31:23;100162.13;;;16.47;32.81
70217;BME280;65567;55.684;37.570;2023-04-09T05:33:50;100165.63;;;16.76;32.09
70217;BME280;65567;55.684;37.570;2023-04-09T05:36:18;100168.91;;;16.96;31.59
70217;BME280;65567;55.684;37.570;2023-04-09T05:38:46;100165.06;;;17.29;31.25
70217;BME280;65567;55.684;37.570;2023-04-09T05:41:12;100167.78;;;17.42;30.97
70217;BME280;65567;55.684;37.570;2023-04-09T05:43:37;100158.97;;;17.41;30.95
70217;BME280;65567;55.684;37.570;2023-04-09T05:46:03;100172.19;;;17.41;31.07
70217;BME280;65567;55.684;37.570;2023-04-09T05:48:30;100173.75;;;17.31;31.38
70217;BME280;65567;55.684;37.570;2023-04-09T05:50:55;100174.28;;;17.36;31.17
70217;BME280;65567;55.684;37.570;2023-04-09T05:53:24;100177.94;;;17.21;31.50
70217;BME280;65567;55.684;37.570;2023-04-09T05:55:50;100165.38;;;17.51;30.90
70217;BME280;65567;55.684;37.570;2023-04-09T05:58:16;100166.78;;;17.84;30.44
70217;BME280;65567;55.684;37.570;2023-04-09T06:00:46;100165.06;;;17.83;30.51
70217;BME280;65567;55.684;37.570;2023-04-09T06:03:12;100172.88;;;17.72;30.41
70217;BME280;65567;55.684;37.570;2023-04-09T06:05:37;100172.31;;;17.94;30.33
70217;BME280;65567;55.684;37.570;2023-04-09T06:08:03;100176.94;;;18.05;30.26
70217;BME280;65567;55.684;37.570;2023-04-09T06:10:32;100177.91;;;18.17;29.71
70217;BME280;65567;55.684;37.570;2023-04-09T06:12:58;100170.69;;;18.19;29.45
70217;BME280;65567;55.684;37.570;2023-04-09T06:15:24;100170.50;;;18.35;29.48
70217;BME280;65567;55.684;37.570;2023-04-09T06:17:50;100169.53;;;18.36;29.51
70217;BME280;65567;55.684;37.570;2023-04-09T06:20:16;100181.13;;;18.35;29.52
70217;BME280;65567;55.684;37.570;2023-04-09T06:22:42;100173.22;;;18.21;29.57
70217;BME280;65567;55.684;37.570;2023-04-09T06:25:08;100179.00;;;18.40;29.46
70217;BME280;65567;55.684;37.570;2023-04-09T06:27:33;100177.28;;;18.26;29.20
70217;BME280;65567;55.684;37.570;2023-04-09T06:29:59;100180.38;;;17.93;29.83
70217;BME280;65567;55.684;37.570;2023-04-09T06:32:25;100181.16;;;17.95;29.89
70217;BME280;65567;55.684;37.570;2023-04-09T06:34:51;100181.41;;;17.90;30.08
70217;BME280;65567;55.684;37.570;2023-04-09T06:37:17;100179.13;;;17.98;29.87
70217;BME280;65567;55.684;37.570;2023-04-09T06:39:43;100183.94;;;17.92;29.89
70217;BME280;65567;55.684;37.570;2023-04-09T06:42:09;100182.41;;;17.75;30.13
70217;BME280;65567;55.684;37.570;2023-04-09T06:44:34;100190.53;;;17.86;30.13
70217;BME280;65567;55.684;37.570;2023-04-09T06:47:01;100183.72;;;17.82;30.35
70217;BME280;65567;55.684;37.570;2023-04-09T06:49:27;100183.63;;;18.11;29.71
70217;BME280;65567;55.684;37.570;2023-04-09T06:51:53;100181.97;;;18.48;29.23
70217;BME280;65567;55.684;37.570;2023-04-09T06:54:20;100188.63;;;19.19;28.29
70217;BME280;65567;55.684;37.570;2023-04-09T06:56:46;100181.09;;;19.74;28.10
70217;BME280;65567;55.684;37.570;2023-04-09T06:59:11;100183.28;;;20.40;26.92
70217;BME280;65567;55.684;37.570;2023-04-09T07:01:38;100189.78;;;20.71;26.49
70217;BME280;65567;55.684;37.570;2023-04-09T07:04:05;100195.47;;;21.23;25.87
70217;BME280;65567;55.684;37.570;2023-04-09T07:06:31;100191.69;;;21.49;25.37
70217;BME280;65567;55.684;37.570;2023-04-09T07:08:56;100192.41;;;21.62;24.89
70217;BME280;65567;55.684;37.570;2023-04-09T07:11:22;100189.00;;;21.60;24.81
70217;BME280;65567;55.684;37.570;2023-04-09T07:13:48;100192.44;;;21.83;24.80
70217;BME280;65567;55.684;37.570;2023-04-09T07:16:14;100197.28;;;21.89;24.33
70217;BME280;65567;55.684;37.570;2023-04-09T07:18:40;100191.00;;;21.79;24.47
70217;BME280;65567;55.684;37.570;2023-04-09T07:21:05;100196.69;;;21.86;24.40
70217;BME280;65567;55.684;37.570;2023-04-09T07:23:34;100198.06;;;22.01;24.33
70217;BME280;65567;55.684;37.570;2023-04-09T07:26:04;100190.63;;;21.84;24.19
70217;BME280;65567;55.684;37.570;2023-04-09T07:28:30;100192.72;;;21.80;24.32
70217;BME280;65567;55.684;37.570;2023-04-09T07:30:56;100193.84;;;21.55;24.32
70217;BME280;65567;55.684;37.570;2023-04-09T07:33:22;100196.22;;;21.81;24.43
70217;BME280;65567;55.684;37.570;2023-04-09T07:35:48;100195.09;;;21.83;24.32
70217;BME280;65567;55.684;37.570;2023-04-09T07:38:14;100199.75;;;21.81;23.90
70217;BME280;65567;55.684;37.570;2023-04-09T07:40:40;100200.06;;;21.55;24.43
70217;BME280;65567;55.684;37.570;2023-04-09T07:43:06;100198.69;;;21.50;24.16
70217;BME280;65567;55.684;37.570;2023-04-09T07:45:32;100205.78;;;21.28;24.61
70217;BME280;65567;55.684;37.570;2023-04-09T07:47:58;100198.47;;;21.41;24.54
70217;BME280;65567;55.684;37.570;2023-04-09T07:50:24;100190.97;;;21.58;24.41
70217;BME280;65567;55.684;37.570;2023-04-09T07:52:50;100192.81;;;21.23;24.58
70217;BME280;65567;55.684;37.570;2023-04-09T07:55:16;100190.00;;;21.25;24.74
70217;BME280;65567;55.684;37.570;2023-04-09T07:57:42;100205.00;;;21.60;24.20
70217;BME280;65567;55.684;37.570;2023-04-09T08:00:10;100195.19;;;21.60;24.10
70217;BME280;65567;55.684;37.570;2023-04-09T08:02:36;100200.25;;;21.64;24.73
70217;BME280;65567;55.684;37.570;2023-04-09T08:05:02;100187.84;;;21.85;23.74
70217;BME280;65567;55.684;37.570;2023-04-09T08:07:28;100187.25;;;21.82;23.75
70217;BME280;65567;55.684;37.570;2023-04-09T08:09:54;100196.53;;;21.87;23.69
70217;BME280;65567;55.684;37.570;2023-04-09T08:12:20;100187.44;;;21.90;23.68
70217;BME280;65567;55.684;37.570;2023-04-09T08:14:46;100189.19;;;21.79;23.71
70217;BME280;65567;55.684;37.570;2023-04-09T08:17:13;100192.28;;;21.64;23.83
70217;BME280;65567;55.684;37.570;2023-04-09T08:19:39;100191.75;;;21.81;23.55
70217;BME280;65567;55.684;37.570;2023-04-09T08:22:04;100194.75;;;21.88;23.42
70217;BME280;65567;55.684;37.570;2023-04-09T08:24:30;100174.72;;;22.15;23.09
70217;BME280;65567;55.684;37.570;2023-04-09T08:26:57;100183.72;;;22.35;22.47
70217;BME280;65567;55.684;37.570;2023-04-09T08:29:22;100180.97;;;22.25;22.62
70217;BME280;65567;55.684;37.570;2023-04-09T08:31:48;100177.22;;;21.95;22.22
70217;BME280;65567;55.684;37.570;2023-04-09T08:34:15;100176.22;;;22.07;22.26
70217;BME280;65567;55.684;37.570;2023-04-09T08:36:45;100176.50;;;22.25;22.45
70217;BME280;65567;55.684;37.570;2023-04-09T08:39:11;100172.88;;;22.48;22.17
70217;BME280;65567;55.684;37.570;2023-04-09T08:41:41;100174.38;;;22.71;21.88
70217;BME280;65567;55.684;37.570;2023-04-09T08:44:08;100179.22;;;22.87;21.53
70217;BME280;65567;55.684;37.570;2023-04-09T08:46:35;100176.78;;;23.05;21.37
70217;BME280;65567;55.684;37.570;2023-04-09T08:49:01;100176.19;;;23.02;21.55
70217;BME280;65567;55.684;37.570;2023-04-09T08:51:27;100176.47;;;23.39;21.26
70217;BME280;65567;55.684;37.570;2023-04-09T08:53:55;100164.53;;;23.73;20.84
70217;BME280;65567;55.684;37.570;2023-04-09T08:56:21;100161.47;;;23.78;20.79
70217;BME280;65567;55.684;37.570;2023-04-09T08:58:48;100165.69;;;23.90;20.72
70217;BME280;65567;55.684;37.570;2023-04-09T09:01:22;100171.75;;;23.72;20.88
70217;BME280;65567;55.684;37.570;2023-04-09T09:04:08;100178.94;;;24.01;20.62
70217;BME280;65567;55.684;37.570;2023-04-09T09:06:39;100160.56;;;24.46;19.95
70217;BME280;65567;55.684;37.570;2023-04-09T09:09:15;100163.59;;;24.80;20.09
70217;BME280;65567;55.684;37.570;2023-04-09T09:11:43;100171.38;;;25.01;19.49
70217;BME280;65567;55.684;37.570;2023-04-09T09:14:15;100168.53;;;25.03;19.55
70217;BME280;65567;55.684;37.570;2023-04-09T09:16:43;100169.00;;;25.26;19.42
70217;BME280;65567;55.684;37.570;2023-04-09T09:19:27;100165.22;;;25.19;19.49
70217;BME280;65567;55.684;37.570;2023-04-09T09:22:05;100160.66;;;25.01;19.63
70217;BME280;65567;55.684;37.570;2023-04-09T09:24:50;100159.94;;;24.71;20.08
70217;BME280;65567;55.684;37.570;2023-04-09T09:27:36;100153.13;;;24.87;20.06
70217;BME280;65567;55.684;37.570;2023-04-09T09:30:05;100150.94;;;25.00;19.79
70217;BME280;65567;55.684;37.570;2023-04-09T09:32:32;100158.91;;;24.82;19.76
70217;BME280;65567;55.684;37.570;2023-04-09T09:35:07;100145.84;;;23.92;20.68
70217;BME280;65567;55.684;37.570;2023-04-09T09:37:33;100146.81;;;23.82;20.63
70217;BME280;65567;55.684;37.570;2023-04-09T09:39:59;100136.53;;;23.57;21.07
70217;BME280;65567;55.684;37.570;2023-04-09T09:42:25;100135.69;;;23.76;20.72
70217;BME280;65567;55.684;37.570;2023-04-09T09:44:54;100129.75;;;23.73;20.49
70217;BME280;65567;55.684;37.570;2023-04-09T09:47:21;100137.50;;;23.86;20.35
70217;BME280;65567;55.684;37.570;2023-04-09T09:49:48;100142.88;;;24.05;20.47
70217;BME280;65567;55.684;37.570;2023-04-09T09:52:23;100132.13;;;24.25;20.27
70217;BME280;65567;55.684;37.570;2023-04-09T09:54:50;100140.63;;;24.11;20.30
70217;BME280;65567;55.684;37.570;2023-04-09T09:57:19;100139.44;;;24.33;20.14
70217;BME280;65567;55.684;37.570;2023-04-09T09:59:58;100141.03;;;24.06;20.62
70217;BME280;65567;55.684;37.570;2023-04-09T10:02:26;100135.56;;;23.98;20.41
70217;BME280;65567;55.684;37.570;2023-04-09T10:04:59;100134.84;;;23.47;20.96
70217;BME280;65567;55.684;37.570;2023-04-09T10:07:26;100142.81;;;23.37;21.00
70217;BME280;65567;55.684;37.570;2023-04-09T10:09:54;100131.44;;;22.94;21.55
70217;BME280;65567;55.684;37.570;2023-04-09T10:12:21;100126.97;;;23.04;21.66
70217;BME280;65567;55.684;37.570;2023-04-09T10:14:51;100132.38;;;23.24;21.27
70217;BME280;65567;55.684;37.570;2023-04-09T10:17:20;100142.81;;;23.27;21.10
70217;BME280;65567;55.684;37.570;2023-04-09T10:19:59;100128.22;;;23.41;21.11
70217;BME280;65567;55.684;37.570;2023-04-09T10:22:28;100138.06;;;23.40;21.11
70217;BME280;65567;55.684;37.570;2023-04-09T10:24:56;100125.13;;;23.55;21.07
70217;BME280;65567;55.684;37.570;2023-04-09T10:27:22;100123.59;;;23.72;20.80
70217;BME280;65567;55.684;37.570;2023-04-09T10:29:49;100131.34;;;24.05;20.48
70217;BME280;65567;55.684;37.570;2023-04-09T10:32:21;100124.56;;;23.71;20.85
70217;BME280;65567;55.684;37.570;2023-04-09T10:34:49;100125.09;;;23.85;20.76
70217;BME280;65567;55.684;37.570;2023-04-09T10:37:22;100126.13;;;23.74;20.80
70217;BME280;65567;55.684;37.570;2023-04-09T10:39:49;100135.41;;;23.09;21.26
70217;BME280;65567;55.684;37.570;2023-04-09T10:42:42;100130.16;;;22.79;21.58
70217;BME280;65567;55.684;37.570;2023-04-09T10:45:13;100135.88;;;22.22;22.41
70217;BME280;65567;55.684;37.570;2023-04-09T10:47:42;100120.06;;;21.88;22.59
70217;BME280;65567;55.684;37.570;2023-04-09T10:50:34;100119.94;;;21.57;22.87
70217;BME280;65567;55.684;37.570;2023-04-09T10:53:02;100131.75;;;21.32;22.99
70217;BME280;65567;55.684;37.570;2023-04-09T10:55:39;100118.97;;;21.46;23.04
70217;BME280;65567;55.684;37.570;2023-04-09T10:58:07;100119.47;;;21.40;23.04
70217;BME280;65567;55.684;37.570;2023-04-09T11:00:41;100119.59;;;21.39;23.01
70217;BME280;65567;55.684;37.570;2023-04-09T11:03:23;100117.59;;;21.64;23.04
70217;BME280;65567;55.684;37.570;2023-04-09T11:06:12;100117.75;;;21.62;22.98
70217;BME280;65567;55.684;37.570;2023-04-09T11:08:37;100114.75;;;21.44;22.94
70217;BME280;65567;55.684;37.570;2023-04-09T11:11:03;100109.16;;;21.47;23.31
70217;BME280;65567;55.684;37.570;2023-04-09T11:13:30;100115.56;;;21.56;23.03
70217;BME280;65567;55.684;37.570;2023-04-09T11:15:57;100123.03;;;21.18;23.38
70217;BME280;65567;55.684;37.570;2023-04-09T11:18:26;100117.63;;;20.97;23.89
70217;BME280;65567;55.684;37.570;2023-04-09T11:21:00;100118.84;;;20.93;23.78
70217;BME280;65567;55.684;37.570;2023-04-09T11:23:28;100117.16;;;21.03;23.53
70217;BME280;65567;55.684;37.570;2023-04-09T11:25:54;100119.69;;;21.05;23.31
70217;BME280;65567;55.684;37.570;2023-04-09T11:28:22;100114.22;;;21.06;23.51
70217;BME280;65567;55.684;37.570;2023-04-09T11:30:52;100117.50;;;20.87;23.77
70217;BME280;65567;55.684;37.570;2023-04-09T11:33:18;100115.09;;;20.73;23.74
70217;BME280;65567;55.684;37.570;2023-04-09T11:35:44;100106.84;;;20.87;23.42
70217;BME280;65567;55.684;37.570;2023-04-09T11:38:11;100120.03;;;20.66;23.54
70217;BME280;65567;55.684;37.570;2023-04-09T11:40:40;100106.16;;;20.96;23.26
70217;BME280;65567;55.684;37.570;2023-04-09T11:43:09;100103.34;;;21.09;23.16
70217;BME280;65567;55.684;37.570;2023-04-09T11:45:36;100102.41;;;20.99;23.23
70217;BME280;65567;55.684;37.570;2023-04-09T11:48:02;100106.72;;;20.32;24.22
70217;BME280;65567;55.684;37.570;2023-04-09T11:50:29;100106.09;;;20.28;24.29
70217;BME280;65567;55.684;37.570;2023-04-09T11:52:57;100098.75;;;20.43;24.10
70217;BME280;65567;55.684;37.570;2023-04-09T11:55:27;100101.63;;;20.40;24.29
70217;BME280;65567;55.684;37.570;2023-04-09T11:57:57;100104.81;;;20.34;24.11
70217;BME280;65567;55.684;37.570;2023-04-09T12:00:25;100100.06;;;20.26;24.14
70217;BME280;65567;55.684;37.570;2023-04-09T12:02:59;100095.03;;;19.88;24.55
70217;BME280;65567;55.684;37.570;2023-04-09T12:05:33;100094.94;;;19.76;24.95
70217;BME280;65567;55.684;37.570;2023-04-09T12:08:06;100090.00;;;19.72;24.61
70217;BME280;65567;55.684;37.570;2023-04-09T12:10:34;100092.59;;;19.60;24.99
70217;BME280;65567;55.684;37.570;2023-04-09T12:13:08;100096.47;;;19.32;25.30
70217;BME280;65567;55.684;37.570;2023-04-09T12:15:36;100096.97;;;19.37;25.20
70217;BME280;65567;55.684;37.570;2023-04-09T12:18:06;100085.94;;;19.55;24.69
70217;BME280;65567;55.684;37.570;2023-04-09T12:20:37;100081.84;;;19.62;24.78
70217;BME280;65567;55.684;37.570;2023-04-09T12:23:11;100080.53;;;19.56;24.91
70217;BME280;65567;55.684;37.570;2023-04-09T12:25:41;100082.72;;;19.62;24.90
70217;BME280;65567;55.684;37.570;2023-04-09T12:28:10;100078.78;;;19.79;24.74
70217;BME280;65567;55.684;37.570;2023-04-09T12:30:36;100086.31;;;19.86;24.43
70217;BME280;65567;55.684;37.570;2023-04-09T12:33:03;100086.81;;;19.91;24.59
70217;BME280;65567;55.684;37.570;2023-04-09T12:35:29;100086.00;;;20.13;24.54
70217;BME280;65567;55.684;37.570;2023-04-09T12:37:55;100072.69;;;19.90;24.59
70217;BME280;65567;55.684;37.570;2023-04-09T12:40:21;100084.53;;;19.97;25.06
70217;BME280;65567;55.684;37.570;2023-04-09T12:42:47;100084.44;;;20.10;24.40
70217;BME280;65567;55.684;37.570;2023-04-09T12:45:16;100077.56;;;20.19;24.23
70217;BME280;65567;55.684;37.570;2023-04-09T12:47:42;100080.09;;;20.09;24.38
70217;BME280;65567;55.684;37.570;2023-04-09T12:50:10;100088.22;;;20.42;24.18
70217;BME280;65567;55.684;37.570;2023-04-09T12:52:37;100085.78;;;20.39;23.74